Share

Selden, KS

Selden, KS (KKSSELDE2) Elev 2858 ft | 39.54 °N, 100.55 °W | Change Station

Current weather conditions updated 8 seconds ago

Clear
Clear
68.7 °F
Feels Like 68.7 °F
N
6.0
Wind Variable Wind from NE
Gusts 16.1 mph
Sunrise 6:59 AM
Sunset 8:24 PM
Moon Waning Gibbous

Today is forecast to be Warmer than yesterday. Thunderstorms tonight.

Pressure 29.97 in
Visibility 10.0 miles
Clouds Clear
Dew Point 48 °F
Humidity 48%
Rainfall 0.00 in
Snow Depth Not available.
UV 5.5 out of 16
Pollen 11.00 out of 12
Air Quality Not available.
Flu Activity No Activity
METAR KCBK 191830Z AUTO 01014G21KT 10SM CLR 20/10 A2997 RMK AO2

More Conditions Fewer Conditions

Pressure 29.97 in
Visibility 10.0 miles
Clouds Clear
Dew Point 48 °F
Humidity 48%
Rainfall 0.00 in
Snow Depth Not available.
UV 5.5 out of 16
Pollen 11.00 out of 12
Air Quality Not available.
Flu Activity No Activity
METAR KCBK 191830Z AUTO 01014G21KT 10SM CLR 20/10 A2997 RMK AO2

More Conditions Fewer Conditions

10-Day Weather Forecast

Almanac

Astronomy

Apr. 19, 2014 Rise Set
Actual Time 6:59 AM CDT 8:24 PM CDT
Civil Twilight 6:31 AM CDT 8:52 PM CDT
Nautical Twilight 5:57 AM CDT 9:26 PM CDT
Astronomical Twilight 5:21 AM CDT 10:02 PM CDT
Moon 12:09 AM CDT 10:20 AM CDT
Length of Visible Light 14h 21m
Length of Day
13h 25m
Tomorrow will be 2m 25s longer.
Waning Gibbous, 77% of the Moon is Illuminated
Today
Waning Gibbous
Apr 22
Last Quarter
Apr 29
New
May 6
First Quarter
May 14
Full

Today's Extremes

State Highs State Lows

Community

  • Piriapolis
    Piriapolis
  • A Glorious Morning
    A Glorious Morning
  • Tender Rays Of Hope
    Tender Rays Of Hope
  • Bleeding Hearts
    Bleeding Hearts
  • Sunset Silhouettes
    Sunset Silhouettes

WunderPhotos

Upload Photos

1,702,840 photos uploaded!

WunderBlogs® & News

Nearby

Snow Depth

Station Depth Elevation
No new snow has been reported.

Coastal Water Temperatures

Place Temperature
No Stations Reporting

Earthquake Activity

City Distance Mag. Time & Date
No recent earthquake activity has been reported nearby.
Minimum magnitude displayed is 2.5.

Nearby Weather Stations

Station Location Temp. Heat Index Dew Point Humidity Wind Precip. Elev Updated Type
Selden, KS, Selden, KS 68.7 °F - 48 °F 48% NE  at  6.0 mph 0.00 in / hr 2858 ft 1:51 PM CDT Rapid Fire
NE Colby, Colby, KS 67.6 °F - 49 °F 51% North  at  8.0 mph 0.00 in / hr 3097 ft 1:50 PM CDT Normal
Angelus, KS, Grinnell, KS 74.3 °F 77 °F 49 °F 41% NNE  at  6.9 mph 0.00 in / hr 2958 ft 1:51 PM CDT Rapid Fire

Show More Stations Show Fewer Stations

What do you think?

We're not finished. Please let us know what you like, what you don't like, and what you are still missing.